Flight Track Log - Related Links

Times and Time Zones

All times are in EDT time to prevent confusion due to time zone crossing. See the LXJ437 flight status page for this flight to view local times or setup timezone preferences in your user account.

Time Position Orientation Groundspeed Altitude Reporting Facility
EDT Latitude Longitude Course Direction KTS MPH feet Rate Location/Type
Sun 09:22:27 PM 37.9550 -122.0483 35° Northeast 171 197 2,400  Level Oakland Center
Sun 09:23:28 PM 37.9900 -122.0172 35° Northeast 217 250 4,800 3,024 Climbing Oakland Center
Sun 09:24:30 PM 38.0372 -122.0100 North 213 245 8,600 3,756 Climbing Oakland Center
Sun 09:25:31 PM 38.0333 -121.9311 94° East 228 262 12,500 3,902 Climbing Oakland Center
Sun 09:26:33 PM 38.0025 -121.8461 115° Southeast 260 299 16,600 3,171 Climbing Oakland Center
Sun 09:27:34 PM 37.9644 -121.7475 116° Southeast 303 349 19,000 1,171 Climbing Oakland Center
Sun 09:28:36 PM 37.9164 -121.6233 116° Southeast 388 447 19,000 732 Level Oakland Center
Sun 09:29:37 PM 37.8161 -121.5839 163° South 394 453 20,500 1,707 Climbing Oakland Center
Sun 09:30:39 PM 37.7069 -121.5228 156° South 429 494 22,500 2,146 Climbing Oakland Center
Sun 09:31:40 PM 37.5672 -121.4467 157° South 451 519 24,900 1,220 Climbing Oakland Center
Sun 09:32:42 PM 37.4469 -121.3814 157° South 467 537 25,000 49 Climbing Oakland Center
Sun 09:33:43 PM 37.3319 -121.3211 157° South 478 550 25,000  Level Oakland Center
Sun 09:34:44 PM 37.2103 -121.2561 157° South 476 548 25,000  Level Oakland Center
Sun 09:35:46 PM 37.0797 -121.1878 157° South 475 547 25,000  Level Oakland Center
Sun 09:36:47 PM 36.9669 -121.1272 157° South 476 548 25,000  Level Oakland Center
Sun 09:37:49 PM 36.8208 -121.0511 157° South 474 545 25,000  Level Oakland Center
Sun 09:38:50 PM 36.7075 -120.9939 158° South 478 550 25,000  Level Oakland Center
Sun 09:39:52 PM 36.5858 -120.9306 157° South 475 547 25,000  Level Oakland Center
Sun 09:40:53 PM 36.4628 -120.8672 158° South 477 549 25,000  Level Oakland Center
Sun 09:41:54 PM 36.3408 -120.8036 157° South 476 548 25,000 -390 Level Oakland Center
Sun 09:42:56 PM 36.1939 -120.7286 158° South 476 548 24,200 -927 Descending Oakland Center
Sun 09:43:57 PM 36.0767 -120.6686 158° South 460 529 23,100 -590 Descending Oakland Center
Sun 09:44:58 PM 35.9575 -120.6083 158° South 461 531 23,000 -49 Descending Oakland Center
Sun 09:45:59 PM 35.8394 -120.5472 157° South 461 531 23,000  Level Oakland Center
Sun 09:47:01 PM 35.7214 -120.4878 158° South 459 528 23,000  Level Oakland Center
Sun 09:48:02 PM 35.6053 -120.4297 158° South 454 522 23,000  Level Oakland Center
Sun 09:48:27 PM 35.5547 -120.4044 158° South 455 524 23,000  Level Los Angeles Center
Sun 09:49:29 PM 35.4328 -120.3558 162° South 458 527 23,000  Level Los Angeles Center
Sun 09:50:31 PM 35.3089 -120.3183 166° South 460 529 23,000 -484 Level Los Angeles Center
Sun 09:51:33 PM 35.1869 -120.2836 167° South 453 521 22,000 -1,951 Descending Los Angeles Center
Sun 09:52:34 PM 35.0789 -120.2522 167° South 410 472 19,000 -3,221 Descending Los Angeles Center
Sun 09:53:08 PM 35.0036 -120.2300 166° South 382 440 16,900 -3,484 Descending Los Angeles Center
Sun 09:53:36 PM 34.9578 -120.2172 167° South 377 434 15,400 -2,939 Descending Los Angeles Center
Sun 09:53:57 PM 34.9256 -120.2078 166° South 365 420 14,500 -2,710 Descending Los Angeles Center
Sun 09:54:38 PM 34.8658 -120.1819 160° South 355 409 12,600 -2,800 Descending Los Angeles Center
Sun 09:54:57 PM 34.8325 -120.1669 160° South 336 387 11,700 -2,419 Descending Los Angeles Center
Sun 09:55:40 PM 34.7806 -120.1458 162° South 333 383 10,100 -2,060 Descending Los Angeles Center
Sun 09:56:04 PM 34.7450 -120.1322 163° South 319 367 9,400 -1,082 Descending Los Angeles Center
Sun 09:56:41 PM 34.6972 -120.1114 160° South 320 368 9,000 -303 Descending Los Angeles Center
Sun 09:57:43 PM 34.6131 -120.0792 163° South 310 357 8,900 -145 Descending Los Angeles Center
Sun 09:58:45 PM 34.5319 -120.0436 160° South 311 358 8,700 -829 Descending Los Angeles Center
Sun 09:59:46 PM 34.4742 -119.9756 136° Southeast 296 341 7,200 -1,659 Descending Los Angeles Center
Sun 10:00:48 PM 34.4122 -119.9336 151° Southeast 269 310 5,300 -2,129 Descending Los Angeles Center
Sun 10:01:50 PM 34.3592 -119.8711 136° Southeast 244 281 2,800 -1,659 Descending Los Angeles Center
Sun 10:02:51 PM 34.3717 -119.8097 76° East 236 272 1,900 -878 Descending Los Angeles Center
Sun 10:03:53 PM 34.4114 -119.7908 21° North 190 219 1,000 -581 Descending Los Angeles Center
Sun 10:04:55 PM 34.4433 -119.8150 328° Northwest 174 200 700 -290 Descending Los Angeles Center
Sun 10:06:00 PM 34.4167 -119.8333 331° Northwest  Level FlightAware Approximate
Sun 10:13:00 PM 34.4262 -119.8415 331° Northwest  Level Estimated

Login

Don't have an account? Register now (free) for customized features, flight alerts, and more!